Time;durP1;ratioP1;P1;durP2;ratioP2;P2;SDS_P1;SDS_P2;PMS_P1;PMS_P2;Temp;Humidity;BMP_temperature;BMP_pressure;BME280_temperature;BME280_humidity;BME280_pressure;Samples;Min_cycle;Max_cycle;Signal;HPM_P1;HPM_P2
2022/06/14 00:03:03;;;;;;;;;;;11.30;99.90;;;;;;5034043;28;19917;-78
2022/06/14 00:05:28;;;;;;;;;;;11.30;99.90;;;;;;5046441;28;19917;-79
2022/06/14 00:07:54;;;;;;;;;;;11.30;99.90;;;;;;5034614;28;19917;-79
2022/06/14 00:10:19;;;;;;;;;;;11.10;99.90;;;;;;5035191;28;19971;-78
2022/06/14 00:12:45;;;;;;;;;;;11.10;99.90;;;;;;5034500;28;19917;-78
2022/06/14 00:15:10;;;;;;;;;;;11.10;99.90;;;;;;5034763;28;20443;-78
2022/06/14 00:17:36;;;;;;;;;;;11.20;99.90;;;;;;5034992;28;19917;-79
2022/06/14 00:20:01;;;;;;;;;;;11.10;99.90;;;;;;5018746;28;19967;-80
2022/06/14 00:22:27;;;;;;;;;;;11.10;99.90;;;;;;5051087;28;19921;-80
2022/06/14 00:24:54;;;;;;;;;;;11.10;99.90;;;;;;5035252;28;19952;-80
2022/06/14 00:27:20;;;;;;;;;;;11.20;99.90;;;;;;5034008;28;20023;-79
2022/06/14 00:29:45;;;;;;;;;;;11.10;99.90;;;;;;5034506;28;19967;-79
2022/06/14 00:32:11;;;;;;;;;;;11.10;99.90;;;;;;5034205;28;19921;-79
2022/06/14 00:34:36;;;;;;;;;;;11.00;99.90;;;;;;5034031;28;19925;-79
2022/06/14 00:37:02;;;;;;;;;;;10.90;99.90;;;;;;5017149;28;19999;-79
2022/06/14 00:39:28;;;;;;;;;;;10.90;99.90;;;;;;5034234;28;20362;-79
2022/06/14 00:41:54;;;;;;;;;;;10.90;99.90;;;;;;5034043;28;19931;-80
2022/06/14 00:44:21;;;;;;;;;;;10.90;99.90;;;;;;5034519;28;19923;-80
2022/06/14 00:46:47;;;;;;;;;;;10.90;99.90;;;;;;5050333;28;19992;-79
2022/06/14 00:49:17;;;;;;;;;;;10.80;99.90;;;;;;5034730;28;19925;-79
2022/06/14 00:52:03;;;;;;;;;;;10.90;99.90;;;;;;5033859;28;19924;-80
2022/06/14 00:54:32;;;;;;;;;;;10.90;99.90;;;;;;5014573;28;19929;-81
2022/06/14 00:57:19;;;;;;;;;;;10.90;99.90;;;;;;5030072;28;20340;-80
2022/06/14 00:59:48;;;;;;;;;;;10.80;99.90;;;;;;5033602;28;19917;-79
2022/06/14 01:02:16;;;;;;;;;;;10.70;99.90;;;;;;5032566;28;19990;-79
2022/06/14 01:04:42;;;;;;;;;;;10.70;99.90;;;;;;5034238;28;19921;-79
2022/06/14 01:07:26;;;;;;;;;;;10.60;99.90;;;;;;5033607;28;19917;-80
2022/06/14 01:09:57;;;;;;;;;;;10.50;99.90;;;;;;5033385;28;19963;-80
2022/06/14 01:12:24;;;;;;;;;;;10.60;99.90;;;;;;5033947;28;19917;-80
2022/06/14 01:14:49;;;;;;;;;;;10.60;99.90;;;;;;5017473;28;19964;-79
2022/06/14 01:17:15;;;;;;;;;;;10.60;99.90;;;;;;5033686;28;19963;-79
2022/06/14 01:19:41;;;;;;;;;;;10.50;99.90;;;;;;5034182;28;19916;-80
2022/06/14 01:22:06;;;;;;;;;;;10.50;99.90;;;;;;5033440;28;20000;-79
2022/06/14 01:24:32;;;;;;;;;;;10.50;99.90;;;;;;5033890;28;19917;-79
2022/06/14 01:26:58;;;;;;;;;;;10.50;99.90;;;;;;5050085;28;19917;-79
2022/06/14 01:29:25;;;;;;;;;;;10.50;99.90;;;;;;5050295;28;19917;-80
2022/06/14 01:31:53;;;;;;;;;;;10.50;99.90;;;;;;5048540;28;19917;-79
2022/06/14 01:34:19;;;;;;;;;;;10.40;99.90;;;;;;5017021;28;19967;-80
2022/06/14 01:36:44;;;;;;;;;;;10.50;99.90;;;;;;5033015;28;19917;-80
2022/06/14 01:39:13;;;;;;;;;;;10.40;99.90;;;;;;5016783;28;20431;-79
2022/06/14 01:41:50;;;;;;;;;;;10.40;99.90;;;;;;5016413;28;19916;-79
2022/06/14 01:44:22;;;;;;;;;;;10.50;99.90;;;;;;5033142;28;19921;-80
2022/06/14 01:46:55;;;;;;;;;;;10.50;99.90;;;;;;5033556;28;19917;-80
2022/06/14 01:52:24;;;;;;;;;;;10.50;99.90;;;;;;5031928;28;19921;-80
2022/06/14 01:54:52;;;;;;;;;;;10.40;99.90;;;;;;5033231;28;19921;-80
2022/06/14 01:57:31;;;;;;;;;;;10.40;99.90;;;;;;5029164;28;19917;-80
2022/06/14 02:00:10;;;;;;;;;;;10.40;99.90;;;;;;5031248;28;19978;-80
2022/06/14 02:02:38;;;;;;;;;;;10.40;99.90;;;;;;5032683;28;19917;-80
2022/06/14 02:05:11;;;;;;;;;;;10.30;99.90;;;;;;5033079;28;19917;-80
2022/06/14 02:07:38;;;;;;;;;;;10.10;99.90;;;;;;5033298;28;19982;-80
2022/06/14 02:10:23;;;;;;;;;;;10.00;99.90;;;;;;5049678;28;19916;-80
2022/06/14 02:13:01;;;;;;;;;;;9.90;99.90;;;;;;5031813;28;19917;-80
2022/06/14 02:15:45;;;;;;;;;;;9.90;99.90;;;;;;5049645;28;19963;-81
2022/06/14 02:18:16;;;;;;;;;;;10.00;99.90;;;;;;5049039;28;20373;-80
2022/06/14 02:20:45;;;;;;;;;;;9.90;99.90;;;;;;5031356;28;19963;-80
2022/06/14 02:23:11;;;;;;;;;;;10.00;99.90;;;;;;5033037;28;19917;-80
2022/06/14 02:25:45;;;;;;;;;;;10.00;99.90;;;;;;5033058;28;20373;-80
2022/06/14 02:28:15;;;;;;;;;;;9.90;99.90;;;;;;5030461;28;19920;-80
2022/06/14 02:30:44;;;;;;;;;;;9.90;99.90;;;;;;5048510;28;19917;-80
2022/06/14 02:33:14;;;;;;;;;;;10.00;99.90;;;;;;5016077;28;20019;-80
2022/06/14 02:35:46;;;;;;;;;;;9.90;99.90;;;;;;5049141;28;19917;-80
2022/06/14 02:38:12;;;;;;;;;;;10.00;99.90;;;;;;5032043;28;20008;-80
2022/06/14 02:40:52;;;;;;;;;;;10.00;99.90;;;;;;5031628;28;19967;-80
2022/06/14 02:43:17;;;;;;;;;;;10.00;99.90;;;;;;5049520;28;20007;-79
2022/06/14 02:45:46;;;;;;;;;;;9.90;99.90;;;;;;5032532;28;20385;-80
2022/06/14 02:48:16;;;;;;;;;;;9.90;99.90;;;;;;5015388;28;19967;-80
2022/06/14 02:50:44;;;;;;;;;;;9.90;99.90;;;;;;5015469;28;19917;-79
2022/06/14 02:53:16;;;;;;;;;;;9.90;99.90;;;;;;5046274;28;20381;-79
2022/06/14 02:55:52;;;;;;;;;;;10.00;99.90;;;;;;5032299;28;19916;-80
2022/06/14 02:58:29;;;;;;;;;;;9.90;99.90;;;;;;5047977;28;19925;-80
2022/06/14 03:01:01;;;;;;;;;;;9.90;99.90;;;;;;5048229;28;19924;-80
2022/06/14 03:03:29;;;;;;;;;;;9.90;99.90;;;;;;5032639;28;20380;-79
2022/06/14 03:05:56;;;;;;;;;;;10.00;99.90;;;;;;5032341;28;19971;-79
2022/06/14 03:08:22;;;;;;;;;;;10.00;99.90;;;;;;5031877;28;19917;-79
2022/06/14 03:11:02;;;;;;;;;;;10.10;99.90;;;;;;5031587;28;20011;-79
2022/06/14 03:13:30;;;;;;;;;;;10.00;99.90;;;;;;5032380;28;19921;-79
2022/06/14 03:16:02;;;;;;;;;;;9.90;99.90;;;;;;5031567;28;20395;-80
2022/06/14 03:18:41;;;;;;;;;;;9.90;99.90;;;;;;5027675;28;19917;-79
2022/06/14 03:21:16;;;;;;;;;;;9.90;99.90;;;;;;5030483;28;20303;-79
2022/06/14 03:23:45;;;;;;;;;;;9.90;99.90;;;;;;5027500;28;19917;-79
2022/06/14 03:26:21;;;;;;;;;;;10.00;99.90;;;;;;5033317;28;20043;-79
2022/06/14 03:28:54;;;;;;;;;;;9.90;99.90;;;;;;5035199;28;19927;-80
2022/06/14 03:31:29;;;;;;;;;;;9.80;99.90;;;;;;5035162;28;19971;-79
2022/06/14 03:33:58;;;;;;;;;;;9.90;99.90;;;;;;5026800;28;19972;-79
2022/06/14 03:36:24;;;;;;;;;;;9.90;99.90;;;;;;5019944;28;20385;-79
2022/06/14 03:38:52;;;;;;;;;;;9.90;99.90;;;;;;5017833;28;19917;-79
2022/06/14 03:41:19;;;;;;;;;;;9.90;99.90;;;;;;5050434;28;19929;-80
2022/06/14 03:43:45;;;;;;;;;;;9.90;99.90;;;;;;5035160;28;19924;-79
2022/06/14 03:46:11;;;;;;;;;;;9.80;99.90;;;;;;5017544;28;19921;-79
2022/06/14 03:48:37;;;;;;;;;;;9.80;99.90;;;;;;5034746;28;19959;-79
2022/06/14 03:51:13;;;;;;;;;;;9.70;99.90;;;;;;5028921;28;19917;-79
2022/06/14 03:53:48;;;;;;;;;;;9.70;99.90;;;;;;5033305;28;19921;-79
2022/06/14 03:56:21;;;;;;;;;;;9.80;99.90;;;;;;5035269;28;19924;-79
2022/06/14 03:58:57;;;;;;;;;;;9.90;99.90;;;;;;5049335;28;20309;-79
2022/06/14 04:01:36;;;;;;;;;;;9.90;99.90;;;;;;5022703;28;20377;-79
2022/06/14 04:04:11;;;;;;;;;;;10.00;99.90;;;;;;5034840;28;19917;-79
2022/06/14 04:06:45;;;;;;;;;;;9.90;99.90;;;;;;5032258;28;19927;-79
2022/06/14 04:09:29;;;;;;;;;;;9.90;99.90;;;;;;5033921;28;19924;-79
2022/06/14 04:12:01;;;;;;;;;;;9.90;99.90;;;;;;5048358;28;19917;-79
2022/06/14 04:14:39;;;;;;;;;;;10.00;99.90;;;;;;5007519;28;19925;-79
2022/06/14 04:17:07;;;;;;;;;;;10.00;99.90;;;;;;5017529;28;19924;-79
2022/06/14 04:19:39;;;;;;;;;;;10.00;99.90;;;;;;5031881;28;19956;-79
2022/06/14 04:22:25;;;;;;;;;;;10.00;99.90;;;;;;5015071;28;19923;-79
2022/06/14 04:24:57;;;;;;;;;;;10.00;99.90;;;;;;5008965;28;19940;-79
2022/06/14 04:27:30;;;;;;;;;;;10.00;99.90;;;;;;5017131;28;19917;-79
2022/06/14 04:30:15;;;;;;;;;;;10.00;99.90;;;;;;5034960;28;19916;-79
2022/06/14 04:32:48;;;;;;;;;;;10.10;99.90;;;;;;5014960;28;19953;-79
2022/06/14 04:35:17;;;;;;;;;;;10.10;99.90;;;;;;5043235;28;20004;-79
2022/06/14 04:37:49;;;;;;;;;;;10.10;99.90;;;;;;5047371;28;19924;-79
2022/06/14 04:40:18;;;;;;;;;;;10.10;99.90;;;;;;5046085;28;19921;-79
2022/06/14 04:42:47;;;;;;;;;;;10.20;99.90;;;;;;5030721;28;19964;-79
2022/06/14 04:45:19;;;;;;;;;;;10.30;99.90;;;;;;5015075;28;19917;-79
2022/06/14 04:47:44;;;;;;;;;;;10.40;99.90;;;;;;5025768;28;20680;-79
2022/06/14 04:50:17;;;;;;;;;;;10.40;99.90;;;;;;5034511;28;19916;-79
2022/06/14 04:53:06;;;;;;;;;;;10.40;99.90;;;;;;5017093;28;19921;-79
2022/06/14 04:55:40;;;;;;;;;;;10.50;99.90;;;;;;5003342;28;20012;-79
2022/06/14 04:58:11;;;;;;;;;;;10.70;99.90;;;;;;5017866;28;20377;-79
2022/06/14 05:00:41;;;;;;;;;;;10.70;99.90;;;;;;5031981;28;19928;-79
2022/06/14 05:03:10;;;;;;;;;;;10.70;99.90;;;;;;5033701;28;20365;-78
2022/06/14 05:05:38;;;;;;;;;;;10.80;99.90;;;;;;5016442;28;20257;-79
2022/06/14 05:08:06;;;;;;;;;;;10.90;99.90;;;;;;5033711;28;19917;-79
2022/06/14 05:10:55;;;;;;;;;;;10.90;99.90;;;;;;5048567;28;19963;-78
2022/06/14 05:13:27;;;;;;;;;;;11.00;99.90;;;;;;5048644;28;19921;-78
2022/06/14 05:16:03;;;;;;;;;;;11.00;99.90;;;;;;5030045;28;19924;-78
2022/06/14 05:18:34;;;;;;;;;;;11.10;99.90;;;;;;5049917;28;19921;-78
2022/06/14 05:21:13;;;;;;;;;;;11.10;99.90;;;;;;5032497;28;20316;-78
2022/06/14 05:23:43;;;;;;;;;;;11.20;99.90;;;;;;5015945;28;19925;-78
2022/06/14 05:26:19;;;;;;;;;;;11.30;99.90;;;;;;5016437;28;20392;-78
2022/06/14 05:29:10;;;;;;;;;;;11.40;99.90;;;;;;5032460;28;20015;-78
2022/06/14 05:31:39;;;;;;;;;;;11.40;99.90;;;;;;5013424;28;19917;-78
2022/06/14 05:34:07;;;;;;;;;;;11.50;99.90;;;;;;5032887;28;19964;-78
2022/06/14 05:36:47;;;;;;;;;;;11.50;99.90;;;;;;5036376;28;19917;-78
2022/06/14 05:39:15;;;;;;;;;;;11.70;99.90;;;;;;5031603;28;19920;-77
2022/06/14 05:41:44;;;;;;;;;;;11.90;99.90;;;;;;5047579;28;19940;-78
2022/06/14 05:44:11;;;;;;;;;;;11.90;99.90;;;;;;5016331;28;19921;-78
2022/06/14 05:46:41;;;;;;;;;;;12.00;99.90;;;;;;5032765;28;19921;-79
2022/06/14 05:49:08;;;;;;;;;;;12.10;99.90;;;;;;5015590;28;19924;-78
2022/06/14 05:51:41;;;;;;;;;;;12.20;99.90;;;;;;5046879;28;19917;-78
2022/06/14 05:54:20;;;;;;;;;;;12.40;99.90;;;;;;5030989;28;19959;-78
2022/06/14 05:56:48;;;;;;;;;;;12.50;99.90;;;;;;5014372;28;20022;-78
2022/06/14 05:59:17;;;;;;;;;;;12.60;99.90;;;;;;5045123;28;19940;-78
2022/06/14 06:01:50;;;;;;;;;;;12.70;99.90;;;;;;5031626;28;20382;-78
2022/06/14 06:04:25;;;;;;;;;;;12.80;99.90;;;;;;5047562;28;19924;-78
2022/06/14 06:06:52;;;;;;;;;;;12.90;99.90;;;;;;5044912;28;19924;-78
2022/06/14 06:09:17;;;;;;;;;;;13.10;99.90;;;;;;5031882;28;20377;-78
2022/06/14 06:11:46;;;;;;;;;;;13.20;99.90;;;;;;5031307;28;19917;-78
2022/06/14 06:14:14;;;;;;;;;;;13.30;99.90;;;;;;5033391;28;19936;-77
2022/06/14 06:17:02;;;;;;;;;;;13.50;99.90;;;;;;5048420;28;19925;-78
2022/06/14 06:19:33;;;;;;;;;;;13.60;99.90;;;;;;5015253;28;19924;-77
2022/06/14 06:22:06;;;;;;;;;;;13.70;99.90;;;;;;5034326;28;20087;-77
2022/06/14 06:24:41;;;;;;;;;;;13.70;99.90;;;;;;5031371;28;19916;-77
2022/06/14 06:27:08;;;;;;;;;;;13.80;99.90;;;;;;5016508;28;20098;-77
2022/06/14 06:29:37;;;;;;;;;;;13.90;99.90;;;;;;5029799;28;19924;-78
2022/06/14 06:32:03;;;;;;;;;;;14.10;99.90;;;;;;5032484;28;19916;-78
2022/06/14 06:34:29;;;;;;;;;;;14.20;99.90;;;;;;5030967;28;19967;-77
2022/06/14 06:36:58;;;;;;;;;;;14.20;99.90;;;;;;5038184;28;20009;-78
2022/06/14 06:39:42;;;;;;;;;;;14.30;99.90;;;;;;5028575;28;19917;-77
2022/06/14 06:42:12;;;;;;;;;;;14.40;99.90;;;;;;5029541;28;19921;-78
2022/06/14 06:44:46;;;;;;;;;;;14.50;99.90;;;;;;5010036;28;19961;-77
2022/06/14 06:47:23;;;;;;;;;;;14.60;99.90;;;;;;5009439;28;19928;-77
2022/06/14 06:49:55;;;;;;;;;;;14.70;99.90;;;;;;5024390;28;19924;-78
2022/06/14 06:52:23;;;;;;;;;;;14.70;99.90;;;;;;5008841;28;19924;-77
2022/06/14 06:54:54;;;;;;;;;;;14.90;99.90;;;;;;5013261;28;19921;-77
2022/06/14 06:57:22;;;;;;;;;;;14.90;99.90;;;;;;5027022;28;19925;-77
2022/06/14 06:59:49;;;;;;;;;;;15.00;99.90;;;;;;5047180;28;19967;-77
2022/06/14 07:02:26;;;;;;;;;;;15.10;99.90;;;;;;5049689;28;20026;-78
2022/06/14 07:05:03;;;;;;;;;;;15.10;99.90;;;;;;5049594;28;19925;-78
2022/06/14 07:07:35;;;;;;;;;;;15.20;99.90;;;;;;5048328;28;20035;-78
2022/06/14 07:10:02;;;;;;;;;;;15.20;99.90;;;;;;5048332;28;20361;-77
2022/06/14 07:12:31;;;;;;;;;;;15.30;99.90;;;;;;5000114;28;19925;-77
2022/06/14 07:15:03;;;;;;;;;;;15.40;99.90;;;;;;5050324;28;19925;-77
2022/06/14 07:17:43;;;;;;;;;;;15.40;99.90;;;;;;5050195;28;20378;-77
2022/06/14 07:20:12;;;;;;;;;;;15.40;99.90;;;;;;5000481;28;19921;-77
2022/06/14 07:22:41;;;;;;;;;;;15.50;99.90;;;;;;5049713;28;19928;-77
2022/06/14 07:25:17;;;;;;;;;;;15.50;99.90;;;;;;5049987;28;19921;-77
2022/06/14 07:27:46;;;;;;;;;;;15.60;99.90;;;;;;5038776;28;19925;-77
2022/06/14 07:30:19;;;;;;;;;;;15.60;99.90;;;;;;5014730;28;19918;-77
2022/06/14 07:32:47;;;;;;;;;;;15.70;99.90;;;;;;5049044;28;19917;-77
2022/06/14 07:35:17;;;;;;;;;;;15.50;99.90;;;;;;5049785;28;20400;-77
2022/06/14 07:37:48;;;;;;;;;;;15.50;99.90;;;;;;5046889;28;20398;-72
2022/06/14 07:40:18;;;;;;;;;;;15.30;99.90;;;;;;5049807;28;19928;-72
2022/06/14 07:42:58;;;;;;;;;;;15.40;99.90;;;;;;5050339;28;19917;-80
2022/06/14 07:45:28;;;;;;;;;;;15.60;99.90;;;;;;5031428;28;19918;-80
2022/06/14 07:47:53;;;;;;;;;;;15.70;99.90;;;;;;5000081;28;19940;-79
2022/06/14 07:50:38;;;;;;;;;;;15.80;99.90;;;;;;5033518;28;20389;-78
2022/06/14 07:53:13;;;;;;;;;;;16.00;99.90;;;;;;5033588;28;19964;-78
2022/06/14 07:55:43;;;;;;;;;;;16.10;99.90;;;;;;5048665;28;20274;-78
2022/06/14 07:58:15;;;;;;;;;;;16.30;99.90;;;;;;5047682;28;20385;-79
2022/06/14 08:03:36;;;;;;;;;;;16.40;99.90;;;;;;5049244;28;20373;-78
2022/06/14 08:06:03;;;;;;;;;;;16.30;99.90;;;;;;5032777;28;19984;-78
2022/06/14 08:08:33;;;;;;;;;;;16.30;99.90;;;;;;5034381;28;19925;-78
2022/06/14 08:11:01;;;;;;;;;;;16.40;99.90;;;;;;5030848;28;19917;-78
2022/06/14 08:13:28;;;;;;;;;;;16.50;99.90;;;;;;5044406;28;19921;-80
2022/06/14 08:15:57;;;;;;;;;;;16.60;99.90;;;;;;5045218;28;19917;-78
2022/06/14 08:18:30;;;;;;;;;;;16.80;99.90;;;;;;5028926;28;19975;-78
2022/06/14 08:21:08;;;;;;;;;;;16.80;99.90;;;;;;4997168;28;19917;-78
2022/06/14 08:23:37;;;;;;;;;;;16.90;99.90;;;;;;5027540;28;19924;-78
2022/06/14 08:26:05;;;;;;;;;;;17.10;99.90;;;;;;5046007;28;19917;-78
2022/06/14 08:28:39;;;;;;;;;;;17.20;99.90;;;;;;4995947;28;19918;-78
2022/06/14 08:31:08;;;;;;;;;;;17.20;99.90;;;;;;5046787;28;20317;-78
2022/06/14 08:33:40;;;;;;;;;;;17.10;99.90;;;;;;5029179;28;19928;-79
2022/06/14 08:36:08;;;;;;;;;;;16.80;99.90;;;;;;5028459;28;20031;-78
2022/06/14 08:38:45;;;;;;;;;;;16.80;99.90;;;;;;5044819;28;20393;-78
2022/06/14 08:41:11;;;;;;;;;;;16.70;99.90;;;;;;4997087;28;19933;-78
2022/06/14 08:43:43;;;;;;;;;;;16.60;99.90;;;;;;5046215;28;19921;-78
2022/06/14 08:46:30;;;;;;;;;;;16.60;99.90;;;;;;5045295;28;19917;-78
2022/06/14 08:49:15;;;;;;;;;;;16.80;99.90;;;;;;4992041;28;19941;-78
2022/06/14 08:51:46;;;;;;;;;;;17.00;99.90;;;;;;5029431;28;19960;-78
2022/06/14 08:54:31;;;;;;;;;;;17.10;99.90;;;;;;5010340;28;20392;-78
2022/06/14 08:57:18;;;;;;;;;;;17.00;99.90;;;;;;5029544;28;20397;-78
2022/06/14 08:59:50;;;;;;;;;;;16.90;99.90;;;;;;5045304;28;19921;-78
2022/06/14 09:02:34;;;;;;;;;;;16.80;99.90;;;;;;5045882;28;19931;-78
2022/06/14 09:05:09;;;;;;;;;;;16.80;99.90;;;;;;5010261;28;19918;-78
2022/06/14 09:07:47;;;;;;;;;;;16.80;99.90;;;;;;5043277;28;20015;-77
2022/06/14 09:10:22;;;;;;;;;;;17.00;99.90;;;;;;5008803;28;20455;-78
2022/06/14 09:13:06;;;;;;;;;;;17.20;99.90;;;;;;5012034;28;20285;-78
2022/06/14 09:15:48;;;;;;;;;;;17.50;99.90;;;;;;5027986;28;19999;-78
2022/06/14 09:18:36;;;;;;;;;;;17.30;99.90;;;;;;4995289;28;19917;-78
2022/06/14 09:21:16;;;;;;;;;;;17.30;99.90;;;;;;4994126;28;19953;-78
2022/06/14 09:24:00;;;;;;;;;;;17.20;99.90;;;;;;5000425;28;19959;-77
2022/06/14 09:26:44;;;;;;;;;;;17.20;99.90;;;;;;5011614;28;19929;-77
2022/06/14 09:29:28;;;;;;;;;;;17.20;99.90;;;;;;5027454;28;20354;-78
2022/06/14 09:31:57;;;;;;;;;;;17.00;99.90;;;;;;5042256;28;19924;-77
2022/06/14 09:34:34;;;;;;;;;;;16.90;99.90;;;;;;5010770;28;20508;-78
2022/06/14 09:37:24;;;;;;;;;;;16.80;99.90;;;;;;5045198;28;19968;-78
2022/06/14 09:40:10;;;;;;;;;;;17.00;99.90;;;;;;5044071;28;19924;-77
2022/06/14 09:42:36;;;;;;;;;;;17.20;99.90;;;;;;5006523;28;19980;-78
2022/06/14 09:45:15;;;;;;;;;;;17.50;99.90;;;;;;5028681;28;19967;-78
2022/06/14 09:48:06;;;;;;;;;;;17.70;99.90;;;;;;5005353;28;19924;-78
2022/06/14 09:50:38;;;;;;;;;;;17.80;99.90;;;;;;5011166;28;19918;-78
2022/06/14 09:53:09;;;;;;;;;;;17.90;99.90;;;;;;5023392;28;19917;-78
2022/06/14 09:55:52;;;;;;;;;;;17.70;99.90;;;;;;5023342;28;19948;-78
2022/06/14 09:58:29;;;;;;;;;;;17.70;99.90;;;;;;5033604;28;19980;-79
2022/06/14 10:00:57;;;;;;;;;;;17.60;99.90;;;;;;5028432;28;19925;-78
2022/06/14 10:03:50;;;;;;;;;;;17.60;99.90;;;;;;5026782;28;19918;-78
2022/06/14 10:06:26;;;;;;;;;;;17.50;99.90;;;;;;5029099;28;20401;-78
2022/06/14 10:08:59;;;;;;;;;;;17.70;99.90;;;;;;5034616;28;19952;-78
2022/06/14 10:11:57;;;;;;;;;;;17.80;99.90;;;;;;5039062;28;19917;-78
2022/06/14 10:14:29;;;;;;;;;;;17.90;99.90;;;;;;4997826;28;20321;-78
2022/06/14 10:17:18;;;;;;;;;;;18.20;99.90;;;;;;5044818;28;19918;-78
2022/06/14 10:19:56;;;;;;;;;;;18.40;99.90;;;;;;5038490;28;19957;-78
2022/06/14 10:22:22;;;;;;;;;;;18.50;99.90;;;;;;4993500;28;19967;-78
2022/06/14 10:24:59;;;;;;;;;;;18.50;99.90;;;;;;5043384;28;19925;-78
2022/06/14 10:30:31;;;;;;;;;;;18.50;99.90;;;;;;5009901;28;19960;-77
2022/06/14 10:33:15;;;;;;;;;;;18.70;99.90;;;;;;5011534;28;19926;-77
2022/06/14 10:35:41;;;;;;;;;;;18.90;99.90;;;;;;5033708;28;19918;-77
2022/06/14 10:38:33;;;;;;;;;;;19.00;99.90;;;;;;5010601;28;19921;-77
2022/06/14 10:41:12;;;;;;;;;;;19.10;99.90;;;;;;5027975;28;19922;-77
2022/06/14 10:43:44;;;;;;;;;;;19.00;99.90;;;;;;5043469;28;19917;-77
2022/06/14 10:46:14;;;;;;;;;;;19.00;99.90;;;;;;5020678;28;19925;-78
2022/06/14 10:48:43;;;;;;;;;;;18.90;99.90;;;;;;5018733;28;19917;-78
2022/06/14 10:51:08;;;;;;;;;;;18.70;99.90;;;;;;5041910;28;19940;-77
2022/06/14 10:53:55;;;;;;;;;;;18.70;99.90;;;;;;5010030;28;20373;-77
2022/06/14 10:56:29;;;;;;;;;;;18.50;99.90;;;;;;5005633;28;19924;-77
2022/06/14 10:58:58;;;;;;;;;;;18.50;99.90;;;;;;5009695;28;20396;-77
2022/06/14 11:01:33;;;;;;;;;;;18.40;99.90;;;;;;5019424;28;19938;-77
2022/06/14 11:04:03;;;;;;;;;;;18.30;99.90;;;;;;5026992;28;19928;-77
2022/06/14 11:06:50;;;;;;;;;;;18.30;99.90;;;;;;5004115;28;20515;-78
2022/06/14 11:09:31;;;;;;;;;;;18.30;99.90;;;;;;5043461;28;19917;-78
2022/06/14 11:12:03;;;;;;;;;;;18.20;99.90;;;;;;5042802;28;20491;-77
2022/06/14 11:14:42;;;;;;;;;;;18.10;99.90;;;;;;5038347;28;19922;-78
2022/06/14 11:17:22;;;;;;;;;;;18.30;99.90;;;;;;5010590;28;20373;-78
2022/06/14 11:19:59;;;;;;;;;;;18.50;99.90;;;;;;5015268;28;19965;-78
2022/06/14 11:22:37;;;;;;;;;;;18.70;99.90;;;;;;5025442;28;19928;-78
2022/06/14 11:25:07;;;;;;;;;;;18.90;99.90;;;;;;5044335;28;19925;-78
2022/06/14 11:27:32;;;;;;;;;;;19.10;99.90;;;;;;5008556;28;20013;-78
2022/06/14 11:30:04;;;;;;;;;;;19.10;99.90;;;;;;5011987;28;19963;-78
2022/06/14 11:32:48;;;;;;;;;;;19.20;99.90;;;;;;5038178;28;19961;-78
2022/06/14 11:35:16;;;;;;;;;;;19.30;99.90;;;;;;5046329;28;19953;-77
2022/06/14 11:38:05;;;;;;;;;;;19.20;99.90;;;;;;5021773;28;19971;-77
2022/06/14 11:40:32;;;;;;;;;;;19.20;99.90;;;;;;5013920;28;19921;-77
2022/06/14 11:43:06;;;;;;;;;;;19.10;99.90;;;;;;5006593;28;19925;-78
2022/06/14 11:45:49;;;;;;;;;;;18.90;99.90;;;;;;5044612;28;20013;-78
2022/06/14 11:48:23;;;;;;;;;;;18.70;99.90;;;;;;5011694;28;19925;-78
2022/06/14 11:50:56;;;;;;;;;;;18.60;99.90;;;;;;5047253;28;19921;-78
2022/06/14 11:53:34;;;;;;;;;;;18.50;99.90;;;;;;5011472;28;19922;-78
2022/06/14 11:56:03;;;;;;;;;;;18.40;99.90;;;;;;5006584;28;19921;-78
2022/06/14 11:58:31;;;;;;;;;;;18.50;99.90;;;;;;5005049;28;19918;-78
2022/06/14 12:01:03;;;;;;;;;;;18.50;99.90;;;;;;5048357;28;19921;-77
2022/06/14 12:03:35;;;;;;;;;;;18.40;99.90;;;;;;5014869;28;20378;-78
2022/06/14 12:06:02;;;;;;;;;;;18.20;99.90;;;;;;5047971;28;20451;-77
2022/06/14 12:08:44;;;;;;;;;;;18.30;99.90;;;;;;5015282;28;20413;-77
2022/06/14 12:11:30;;;;;;;;;;;18.50;99.90;;;;;;5021271;28;19924;-77
2022/06/14 12:13:59;;;;;;;;;;;18.60;99.90;;;;;;5008926;28;20395;-78
2022/06/14 12:16:29;;;;;;;;;;;18.70;99.90;;;;;;5047432;28;20393;-77
2022/06/14 12:19:05;;;;;;;;;;;18.70;99.90;;;;;;5031640;28;20378;-78
2022/06/14 12:21:31;;;;;;;;;;;18.80;99.90;;;;;;5014914;28;19971;-77
2022/06/14 12:24:00;;;;;;;;;;;18.90;99.90;;;;;;5047198;28;19925;-77
2022/06/14 12:26:39;;;;;;;;;;;18.90;99.90;;;;;;5013304;28;19968;-72
2022/06/14 12:29:22;;;;;;;;;;;19.20;99.90;;;;;;5047866;28;19918;-72
2022/06/14 12:32:04;;;;;;;;;;;19.20;99.90;;;;;;5031670;28;20267;-76
2022/06/14 12:34:33;;;;;;;;;;;19.10;99.90;;;;;;5027405;28;19921;-76
2022/06/14 12:37:01;;;;;;;;;;;19.20;99.90;;;;;;5046840;28;19921;-75
2022/06/14 12:39:42;;;;;;;;;;;19.40;99.90;;;;;;5006924;28;19921;-75
2022/06/14 12:42:12;;;;;;;;;;;19.50;99.90;;;;;;5014270;28;20287;-76
2022/06/14 12:44:44;;;;;;;;;;;19.70;99.90;;;;;;4981307;28;19921;-75
2022/06/14 12:47:33;;;;;;;;;;;19.70;99.90;;;;;;5037616;28;20901;-76
2022/06/14 12:50:05;;;;;;;;;;;19.60;99.90;;;;;;5025424;28;19953;-76
2022/06/14 12:52:33;;;;;;;;;;;19.70;99.90;;;;;;5044510;28;19917;-76
2022/06/14 12:55:01;;;;;;;;;;;19.40;99.90;;;;;;5046329;28;19922;-76
2022/06/14 12:57:27;;;;;;;;;;;19.20;99.90;;;;;;5029523;28;19921;-76
2022/06/14 13:00:12;;;;;;;;;;;19.10;99.90;;;;;;5013973;28;20420;-76
2022/06/14 13:02:44;;;;;;;;;;;19.10;99.90;;;;;;5027141;28;19918;-76
2022/06/14 13:05:10;;;;;;;;;;;19.10;99.90;;;;;;5011167;28;19940;-76
2022/06/14 13:07:49;;;;;;;;;;;19.00;99.90;;;;;;4999351;28;20358;-76
2022/06/14 13:10:15;;;;;;;;;;;18.90;99.90;;;;;;5024760;28;19924;-76
2022/06/14 13:12:54;;;;;;;;;;;18.90;99.90;;;;;;5039160;28;19917;-76
2022/06/14 13:15:28;;;;;;;;;;;18.90;99.90;;;;;;5012119;28;19975;-76
2022/06/14 13:17:54;;;;;;;;;;;18.80;99.90;;;;;;5027584;28;19978;-75
2022/06/14 13:20:25;;;;;;;;;;;18.80;99.90;;;;;;5046142;28;19917;-74
2022/06/14 13:23:00;;;;;;;;;;;18.70;99.90;;;;;;5012589;28;19957;-75
2022/06/14 13:25:41;;;;;;;;;;;18.70;99.90;;;;;;5010963;28;19925;-74
2022/06/14 13:28:24;;;;;;;;;;;18.70;99.90;;;;;;5012077;28;19921;-75
2022/06/14 13:30:53;;;;;;;;;;;18.70;99.90;;;;;;5030447;28;19968;-75
2022/06/14 13:33:38;;;;;;;;;;;18.70;99.90;;;;;;5028551;28;19918;-74
2022/06/14 13:36:10;;;;;;;;;;;18.70;99.90;;;;;;4995763;28;19972;-74
2022/06/14 13:38:51;;;;;;;;;;;18.80;99.90;;;;;;5029527;28;19968;-74
2022/06/14 13:41:20;;;;;;;;;;;18.90;99.90;;;;;;5011372;28;19925;-74
2022/06/14 13:44:05;;;;;;;;;;;18.90;99.90;;;;;;5027780;28;19968;-73
2022/06/14 13:46:43;;;;;;;;;;;18.90;99.90;;;;;;5028729;28;19956;-74
2022/06/14 13:49:27;;;;;;;;;;;18.90;99.90;;;;;;5045592;28;19917;-74
2022/06/14 13:52:12;;;;;;;;;;;18.90;99.90;;;;;;5027963;28;20445;-74
2022/06/14 13:54:50;;;;;;;;;;;18.90;99.90;;;;;;5006436;28;20266;-74
2022/06/14 13:57:22;;;;;;;;;;;19.00;99.90;;;;;;5012359;28;19917;-74
2022/06/14 13:59:49;;;;;;;;;;;18.90;99.90;;;;;;5010964;28;19925;-74
2022/06/14 14:02:23;;;;;;;;;;;18.90;99.90;;;;;;5044194;28;20393;-74
2022/06/14 14:04:53;;;;;;;;;;;18.90;99.90;;;;;;5018464;28;19924;-74
2022/06/14 14:07:25;;;;;;;;;;;18.90;99.90;;;;;;5006007;28;19917;-74
2022/06/14 14:09:51;;;;;;;;;;;18.90;99.90;;;;;;5044444;28;19917;-75
2022/06/14 14:12:29;;;;;;;;;;;18.90;99.90;;;;;;5043101;28;20779;-75
2022/06/14 14:14:55;;;;;;;;;;;18.90;99.90;;;;;;5020602;28;19921;-75
2022/06/14 14:17:20;;;;;;;;;;;18.80;99.90;;;;;;5044024;28;19917;-75
2022/06/14 14:19:55;;;;;;;;;;;19.00;99.90;;;;;;5045408;28;20022;-75
2022/06/14 14:22:40;;;;;;;;;;;18.90;99.90;;;;;;5038622;28;20270;-75
2022/06/14 14:25:13;;;;;;;;;;;18.90;99.90;;;;;;5006745;28;19923;-75
2022/06/14 14:27:42;;;;;;;;;;;19.00;99.90;;;;;;5028069;28;20372;-75
2022/06/14 14:30:38;;;;;;;;;;;18.80;99.90;;;;;;5042445;28;19925;-75
2022/06/14 14:33:06;;;;;;;;;;;18.80;99.90;;;;;;5027222;28;19924;-73
2022/06/14 14:35:49;;;;;;;;;;;18.90;99.90;;;;;;5007983;28;19918;-73
2022/06/14 14:38:25;;;;;;;;;;;19.00;99.90;;;;;;5042330;28;19918;-77
2022/06/14 14:41:41;;;;;;;;;;;18.90;99.90;;;;;;5028155;28;19944;-75
2022/06/14 14:44:14;;;;;;;;;;;18.90;99.90;;;;;;5013564;28;19928;-75
2022/06/14 14:46:51;;;;;;;;;;;18.90;99.90;;;;;;4975973;28;19917;-75
2022/06/14 14:49:21;;;;;;;;;;;18.80;99.90;;;;;;5007220;28;19922;-75
2022/06/14 14:51:52;;;;;;;;;;;18.80;99.90;;;;;;4995755;28;19955;-80
2022/06/14 14:54:23;;;;;;;;;;;19.10;99.90;;;;;;5009617;28;20310;-80
2022/06/14 14:56:51;;;;;;;;;;;19.20;99.90;;;;;;5042703;28;20293;-80
2022/06/14 14:59:33;;;;;;;;;;;19.10;99.90;;;;;;5039910;28;19921;-80
2022/06/14 15:07:39;;;;;;;;;;;18.80;99.90;;;;;;5027606;28;20289;-78
2022/06/14 15:10:17;;;;;;;;;;;18.80;99.90;;;;;;4994561;28;19918;-76